createdAt,value
2022-07-29T00:02:08.246Z,97893.59
2022-07-29T00:04:41.515Z,97895.41
2022-07-29T00:07:11.629Z,97892.06
2022-07-29T00:09:50.765Z,97893.16
2022-07-29T00:12:26.235Z,97892.34
2022-07-29T00:14:58.564Z,97884.38
2022-07-29T00:17:29.005Z,97880.69
2022-07-29T00:20:01.573Z,97877.94
2022-07-29T00:22:31.955Z,97878.94
2022-07-29T00:25:01.980Z,97876.38
2022-07-29T00:27:32.002Z,97874.88
2022-07-29T00:30:02.049Z,97881.84
2022-07-29T00:32:32.072Z,97871.03
2022-07-29T00:35:17.298Z,97880.03
2022-07-29T00:37:47.763Z,97873.56
2022-07-29T00:40:17.795Z,97880.47
2022-07-29T00:42:48.183Z,97879.66
2022-07-29T00:45:19.577Z,97868.63
2022-07-29T00:47:49.827Z,97861.63
2022-07-29T00:50:22.740Z,97875.69
2022-07-29T00:52:54.132Z,97871.78
2022-07-29T00:55:24.663Z,97871.16
2022-07-29T00:57:56.195Z,97865.47
2022-07-29T01:00:30.129Z,97865.66
2022-07-29T01:03:00.397Z,97858.00
2022-07-29T01:05:49.980Z,97856.31
2022-07-29T01:08:24.047Z,97856.31
2022-07-29T01:10:56.867Z,97854.00
2022-07-29T01:13:27.571Z,97850.88
2022-07-29T01:16:16.883Z,97840.50
2022-07-29T01:18:53.365Z,97845.38
2022-07-29T01:21:53.840Z,97838.88
2022-07-29T01:25:04.538Z,97841.41
2022-07-29T01:28:01.786Z,97842.44
2022-07-29T01:30:38.689Z,97840.91
2022-07-29T01:33:37.965Z,97844.03
2022-07-29T01:36:17.760Z,97844.53
2022-07-29T01:39:09.810Z,97842.50
2022-07-29T01:41:46.395Z,97833.44
2022-07-29T01:44:23.862Z,97831.84
2022-07-29T01:47:02.278Z,97832.06
2022-07-29T01:49:40.192Z,97834.88
2022-07-29T01:52:19.513Z,97838.75
2022-07-29T01:54:57.776Z,97836.97
2022-07-29T01:57:33.131Z,97840.06
2022-07-29T02:00:05.525Z,97846.97
2022-07-29T02:02:48.163Z,97837.88
2022-07-29T02:05:22.877Z,97836.78
2022-07-29T02:07:56.464Z,97838.72
2022-07-29T02:10:31.763Z,97836.91
2022-07-29T02:13:03.976Z,97838.47
2022-07-29T02:15:38.129Z,97833.59
2022-07-29T02:18:16.646Z,97830.03
2022-07-29T02:20:52.023Z,97828.94
2022-07-29T02:23:25.653Z,97824.16
2022-07-29T02:25:59.870Z,97827.28
2022-07-29T02:28:33.313Z,97816.91
2022-07-29T02:31:07.946Z,97824.41
2022-07-29T02:33:44.672Z,97824.03
2022-07-29T02:36:15.539Z,97822.00
2022-07-29T02:38:54.557Z,97831.06
2022-07-29T02:41:31.231Z,97833.19
2022-07-29T02:44:08.848Z,97819.75
2022-07-29T02:46:45.527Z,97819.22
2022-07-29T02:49:31.876Z,97820.91
2022-07-29T02:52:06.672Z,97820.91
2022-07-29T02:54:44.819Z,97815.53
2022-07-29T02:57:24.372Z,97816.63
2022-07-29T02:59:57.709Z,97818.88
2022-07-29T03:02:32.326Z,97819.09
2022-07-29T03:05:08.507Z,97818.88
2022-07-29T03:07:43.377Z,97822.69
2022-07-29T03:10:14.158Z,97824.97
2022-07-29T03:12:45.433Z,97822.44
2022-07-29T03:15:16.646Z,97822.69
2022-07-29T03:17:47.396Z,97827.97
2022-07-29T03:20:21.391Z,97823.69
2022-07-29T03:22:51.862Z,97832.34
2022-07-29T03:25:24.016Z,97828.72
2022-07-29T03:27:54.440Z,97828.25
2022-07-29T03:30:24.410Z,97826.22
2022-07-29T03:32:56.672Z,97829.25
2022-07-29T03:35:32.673Z,97824.97
2022-07-29T03:38:02.963Z,97828.78
2022-07-29T03:40:46.430Z,97821.84
2022-07-29T03:43:19.557Z,97830.56
2022-07-29T03:45:55.547Z,97827.28
2022-07-29T03:48:30.429Z,97822.81
2022-07-29T03:51:03.187Z,97830.34
2022-07-29T03:53:33.475Z,97834.00
2022-07-29T03:56:06.753Z,97829.41
2022-07-29T03:58:38.262Z,97837.59
2022-07-29T04:01:08.540Z,97838.84
2022-07-29T04:03:39.052Z,97832.53
2022-07-29T04:06:11.757Z,97840.47
2022-07-29T04:08:42.178Z,97850.69
2022-07-29T04:11:12.222Z,97855.03
2022-07-29T04:13:42.418Z,97853.03
2022-07-29T04:16:12.650Z,97852.16
2022-07-29T04:18:42.665Z,97854.06
2022-07-29T04:21:15.616Z,97852.91
2022-07-29T04:23:53.340Z,97855.25
2022-07-29T04:26:24.686Z,97854.47
2022-07-29T04:28:54.682Z,97861.41
2022-07-29T04:31:26.016Z,97868.41
2022-07-29T04:33:56.133Z,97859.78
2022-07-29T04:36:29.935Z,97861.63
2022-07-29T04:39:00.199Z,97855.94
2022-07-29T04:41:33.139Z,97851.88
2022-07-29T04:44:07.015Z,97859.09
2022-07-29T04:46:37.790Z,97861.94
2022-07-29T04:49:08.279Z,97858.25
2022-07-29T04:51:41.010Z,97860.69
2022-07-29T04:54:11.037Z,97857.91
2022-07-29T04:56:41.030Z,97866.28
2022-07-29T04:59:11.469Z,97861.97
2022-07-29T05:01:43.523Z,97868.50
2022-07-29T05:04:14.092Z,97866.81
2022-07-29T05:06:46.814Z,97871.19
2022-07-29T05:09:16.780Z,97870.69
2022-07-29T05:11:46.909Z,97861.22
2022-07-29T05:14:17.394Z,97869.25
2022-07-29T05:16:47.769Z,97885.25
2022-07-29T05:19:17.738Z,97880.16
2022-07-29T05:21:51.388Z,97881.47
2022-07-29T05:24:21.411Z,97881.34
2022-07-29T05:26:51.459Z,97876.47
2022-07-29T05:29:44.088Z,97880.59
2022-07-29T05:32:11.884Z,97884.78
2022-07-29T05:34:50.748Z,97893.47
2022-07-29T05:37:24.879Z,97886.34
2022-07-29T05:39:56.975Z,97897.16
2022-07-29T05:42:27.628Z,97890.84
2022-07-29T05:44:58.005Z,97889.91
2022-07-29T05:47:28.477Z,97888.44
2022-07-29T05:49:58.494Z,97896.38
2022-07-29T05:52:31.523Z,97903.19
2022-07-29T05:55:03.863Z,97901.31
2022-07-29T05:57:33.847Z,97903.81
2022-07-29T06:00:04.154Z,97898.03
2022-07-29T06:02:42.380Z,97895.19
2022-07-29T06:05:16.522Z,97905.38
2022-07-29T06:07:51.069Z,97902.94
2022-07-29T06:10:24.032Z,97907.13
2022-07-29T06:12:57.509Z,97905.88
2022-07-29T06:15:27.474Z,97909.03
2022-07-29T06:17:59.999Z,97900.19
2022-07-29T06:20:31.598Z,97902.47
2022-07-29T06:23:05.617Z,97910.59
2022-07-29T06:25:37.676Z,97908.22
2022-07-29T06:28:08.065Z,97906.53
2022-07-29T06:30:38.103Z,97915.47
2022-07-29T06:33:08.528Z,97911.16
2022-07-29T06:35:42.378Z,97912.63
2022-07-29T06:38:30.077Z,97906.91
2022-07-29T06:41:04.097Z,97910.75
2022-07-29T06:43:50.418Z,97917.25
2022-07-29T06:46:23.955Z,97916.31
2022-07-29T06:48:56.026Z,97917.97
2022-07-29T06:51:26.688Z,97916.84
2022-07-29T06:54:02.871Z,97917.19
2022-07-29T06:56:39.420Z,97915.31
2022-07-29T06:59:11.425Z,97923.72
2022-07-29T07:01:43.124Z,97919.66
2022-07-29T07:04:14.555Z,97924.56
2022-07-29T07:06:45.104Z,97921.06
2022-07-29T07:09:17.625Z,97920.63
2022-07-29T07:11:49.558Z,97915.50
2022-07-29T07:14:21.055Z,97923.00
2022-07-29T07:16:52.543Z,97928.69
2022-07-29T07:19:24.039Z,97926.19
2022-07-29T07:21:54.002Z,97922.38
2022-07-29T07:24:28.617Z,97913.25
2022-07-29T07:26:58.603Z,97923.25
2022-07-29T07:29:28.588Z,97923.41
2022-07-29T07:32:01.205Z,97929.28
2022-07-29T07:34:31.563Z,97934.81
2022-07-29T07:37:01.589Z,97940.06
2022-07-29T07:39:34.105Z,97938.13
2022-07-29T07:42:04.221Z,97936.28
2022-07-29T07:44:46.299Z,97934.91
2022-07-29T07:47:25.475Z,97930.97
2022-07-29T07:49:58.042Z,97937.75
2022-07-29T07:52:28.172Z,97932.69
2022-07-29T07:55:00.818Z,97929.44
2022-07-29T07:57:30.958Z,97932.25
2022-07-29T08:00:00.914Z,97929.88
2022-07-29T08:02:31.378Z,97938.47
2022-07-29T08:05:01.415Z,97934.59
2022-07-29T08:07:31.432Z,97935.22
2022-07-29T08:10:04.170Z,97933.09
2022-07-29T08:12:34.272Z,97940.63
2022-07-29T08:15:04.474Z,97940.44
2022-07-29T08:17:35.230Z,97932.63
2022-07-29T08:20:05.613Z,97927.09
2022-07-29T08:22:35.613Z,97934.66
2022-07-29T08:25:09.748Z,97936.22
2022-07-29T08:27:44.147Z,97940.03
2022-07-29T08:30:16.150Z,97932.47
2022-07-29T08:32:54.777Z,97929.09
2022-07-29T08:35:27.939Z,97931.56
2022-07-29T08:38:00.096Z,97929.34
2022-07-29T08:40:34.585Z,97927.19
2022-07-29T08:43:10.098Z,97926.75
2022-07-29T08:45:48.615Z,97926.53
2022-07-29T08:48:21.354Z,97930.44
2022-07-29T08:50:56.403Z,97927.69
2022-07-29T08:53:30.549Z,97927.25
2022-07-29T08:56:04.574Z,97933.59
2022-07-29T08:58:38.288Z,97926.50
2022-07-29T09:01:12.489Z,97924.34
2022-07-29T09:03:46.836Z,97925.97
2022-07-29T09:06:18.791Z,97931.78
2022-07-29T09:08:49.743Z,97934.91
2022-07-29T09:11:22.566Z,97940.81
2022-07-29T09:13:52.831Z,97933.91
2022-07-29T09:16:51.029Z,97939.00
2022-07-29T09:19:28.096Z,97942.25
2022-07-29T09:22:03.389Z,97938.00
2022-07-29T09:24:45.797Z,97943.59
2022-07-29T09:27:27.449Z,97937.94
2022-07-29T09:30:02.858Z,97942.19
2022-07-29T09:32:34.277Z,97944.72
2022-07-29T09:35:22.357Z,97932.47
2022-07-29T09:37:52.812Z,97925.00
2022-07-29T09:40:25.213Z,97930.16
2022-07-29T09:42:59.307Z,97931.69
2022-07-29T09:45:35.277Z,97920.09
2022-07-29T09:48:18.861Z,97918.97
2022-07-29T09:50:51.415Z,97917.13
2022-07-29T09:53:36.981Z,97916.22
2022-07-29T09:56:11.672Z,97900.97
2022-07-29T09:58:44.316Z,97910.50
2022-07-29T10:01:16.144Z,97912.56
2022-07-29T10:03:55.644Z,97915.22
2022-07-29T10:06:26.087Z,97912.75
2022-07-29T10:08:56.113Z,97908.59
2022-07-29T10:11:26.454Z,97906.38
2022-07-29T10:14:19.893Z,97909.41
2022-07-29T10:16:50.379Z,97911.28
2022-07-29T10:19:21.322Z,97907.75
2022-07-29T10:21:56.274Z,97895.59
2022-07-29T10:24:30.366Z,97891.97
2022-07-29T10:27:03.385Z,97898.91
2022-07-29T10:29:37.169Z,97897.44
2022-07-29T10:32:35.345Z,97891.53
2022-07-29T10:35:30.675Z,97890.44
2022-07-29T10:38:38.519Z,97877.13
2022-07-29T10:41:36.402Z,97866.72
2022-07-29T10:44:23.310Z,97876.88
2022-07-29T10:46:57.285Z,97862.56
2022-07-29T10:49:31.517Z,97857.78
2022-07-29T10:52:05.874Z,97860.16
2022-07-29T10:54:54.656Z,97858.00
2022-07-29T10:57:52.777Z,97866.09
2022-07-29T11:00:36.407Z,97867.59
2022-07-29T11:03:11.007Z,97863.91
2022-07-29T11:05:59.435Z,97879.16
2022-07-29T11:08:31.881Z,97866.34
2022-07-29T11:11:37.764Z,97868.84
2022-07-29T11:14:10.314Z,97869.81
2022-07-29T11:17:06.200Z,97862.03
2022-07-29T11:19:45.727Z,97871.66
2022-07-29T11:22:37.051Z,97903.25
2022-07-29T11:28:25.064Z,97947.13
2022-07-29T11:30:58.213Z,97961.38
2022-07-29T11:33:54.694Z,98067.97
2022-07-29T11:36:27.972Z,98019.34
2022-07-29T11:39:36.780Z,97926.09
2022-07-29T11:42:42.093Z,97940.84
2022-07-29T11:45:42.131Z,97945.69
2022-07-29T11:48:28.820Z,97947.88
2022-07-29T11:51:01.563Z,97948.38
2022-07-29T11:53:37.162Z,97951.34
2022-07-29T11:56:12.548Z,97962.25
2022-07-29T11:58:48.384Z,97968.03
2022-07-29T12:01:22.475Z,97970.16
2022-07-29T12:04:07.936Z,97964.88
2022-07-29T12:06:38.665Z,97960.16
2022-07-29T12:09:14.714Z,97948.81
2022-07-29T12:11:47.402Z,97944.44
2022-07-29T12:14:31.744Z,97945.22
2022-07-29T12:17:03.944Z,97940.16
2022-07-29T12:19:47.210Z,97931.53
2022-07-29T12:22:29.918Z,97929.81
2022-07-29T12:25:32.205Z,97926.44
2022-07-29T12:28:06.992Z,97925.56
2022-07-29T12:30:45.076Z,97933.13
2022-07-29T12:33:25.165Z,97928.91
2022-07-29T12:36:06.895Z,97936.88
2022-07-29T12:38:38.370Z,97944.81
2022-07-29T12:41:11.282Z,97938.47
2022-07-29T12:43:41.276Z,97939.63
2022-07-29T12:46:18.315Z,97947.16
2022-07-29T12:48:48.545Z,97940.88
2022-07-29T12:51:18.735Z,97939.28
2022-07-29T12:54:08.597Z,97935.00
2022-07-29T12:56:43.158Z,97928.75
2022-07-29T12:59:20.309Z,97934.13
2022-07-29T13:01:52.816Z,97938.66
2022-07-29T13:04:30.926Z,97939.19
2022-07-29T13:07:09.192Z,97939.56
2022-07-29T13:09:42.677Z,97932.59
2022-07-29T13:12:17.992Z,97943.16
2022-07-29T13:14:51.241Z,97940.44
2022-07-29T13:17:24.037Z,97946.19
2022-07-29T13:19:56.561Z,97942.22
2022-07-29T13:22:30.301Z,97948.16
2022-07-29T13:25:02.970Z,97950.38
2022-07-29T13:27:38.240Z,97962.03
2022-07-29T13:30:12.718Z,97976.97
2022-07-29T13:32:42.793Z,97963.00
2022-07-29T13:35:14.653Z,97969.59
2022-07-29T13:37:44.777Z,97962.19
2022-07-29T13:40:16.803Z,97960.69
2022-07-29T13:42:49.442Z,97957.09
2022-07-29T13:45:20.089Z,97958.56
2022-07-29T13:47:50.078Z,97967.88
2022-07-29T13:50:20.109Z,97961.97
2022-07-29T13:52:51.611Z,97962.22
2022-07-29T13:55:22.008Z,97956.94
2022-07-29T13:57:54.762Z,97954.94
2022-07-29T14:00:25.636Z,97945.72
2022-07-29T14:02:55.626Z,97942.84
2022-07-29T14:05:25.630Z,97936.88
2022-07-29T14:07:55.611Z,97929.06
2022-07-29T14:10:25.776Z,97926.97
2022-07-29T14:12:58.390Z,97917.97
2022-07-29T14:15:28.374Z,97927.31
2022-07-29T14:17:58.339Z,97911.25
2022-07-29T14:20:30.740Z,97915.19
2022-07-29T14:23:01.804Z,97910.59
2022-07-29T14:25:32.186Z,97919.19
2022-07-29T14:28:06.086Z,97926.75
2022-07-29T14:30:36.165Z,97932.03
2022-07-29T14:33:06.452Z,97926.88
2022-07-29T14:35:36.497Z,97935.31
2022-07-29T14:38:07.146Z,97932.44
2022-07-29T14:40:37.406Z,97941.63
2022-07-29T14:43:10.118Z,97934.88
2022-07-29T14:45:40.197Z,97942.41
2022-07-29T14:48:10.286Z,97933.69
2022-07-29T14:50:40.236Z,97941.56
2022-07-29T14:53:10.590Z,97939.94
2022-07-29T14:55:40.539Z,97946.19
2022-07-29T14:58:16.384Z,97943.53
2022-07-29T15:00:47.180Z,97938.13
2022-07-29T15:03:23.713Z,97942.75
2022-07-29T15:05:54.493Z,97947.19
2022-07-29T15:08:26.278Z,97946.50
2022-07-29T15:10:58.529Z,97942.34
2022-07-29T15:13:31.298Z,97945.38
2022-07-29T15:16:01.259Z,97947.41
2022-07-29T15:18:31.306Z,97952.59
2022-07-29T15:21:03.313Z,97949.81
2022-07-29T15:23:33.385Z,97942.50
2022-07-29T15:26:03.389Z,97944.53
2022-07-29T15:28:36.013Z,97941.09
2022-07-29T15:31:06.138Z,97948.50
2022-07-29T15:33:36.105Z,97952.69
2022-07-29T15:36:06.935Z,97949.38
2022-07-29T15:38:40.475Z,97946.56
2022-07-29T15:41:12.329Z,97953.72
2022-07-29T15:43:48.709Z,97941.88
2022-07-29T15:46:33.599Z,97943.94
2022-07-29T15:49:04.660Z,97952.19
2022-07-29T15:51:35.093Z,97948.97
2022-07-29T15:54:06.677Z,97938.94
2022-07-29T15:56:36.732Z,97935.75
2022-07-29T15:59:09.326Z,97930.63
2022-07-29T16:01:52.722Z,97935.69
2022-07-29T16:04:22.915Z,97943.34
2022-07-29T16:06:53.671Z,97941.47
2022-07-29T16:09:24.536Z,97944.31
2022-07-29T16:11:54.520Z,97942.25
2022-07-29T16:14:28.383Z,97944.69
2022-07-29T16:16:58.717Z,97946.25
2022-07-29T16:19:28.873Z,97948.34
2022-07-29T16:21:59.992Z,97955.13
2022-07-29T16:24:31.259Z,97953.66
2022-07-29T16:27:01.706Z,97949.53
2022-07-29T16:29:34.895Z,97940.22
2022-07-29T16:32:05.089Z,97939.66
2022-07-29T16:34:35.127Z,97935.50
2022-07-29T16:37:05.477Z,97937.53
2022-07-29T16:39:35.865Z,97933.97
2022-07-29T16:42:06.535Z,97932.03
2022-07-29T16:44:39.104Z,97938.38
2022-07-29T16:47:09.360Z,97936.97
2022-07-29T16:49:39.390Z,97940.34
2022-07-29T16:52:09.545Z,97939.66
2022-07-29T16:54:39.505Z,97938.72
2022-07-29T16:57:09.674Z,97939.34
2022-07-29T16:59:43.595Z,97946.31
2022-07-29T17:02:14.382Z,97939.84
2022-07-29T17:04:44.400Z,97938.09
2022-07-29T17:07:15.001Z,97945.56
2022-07-29T17:09:45.074Z,97944.28
2022-07-29T17:12:15.109Z,97947.19
2022-07-29T17:14:47.703Z,97948.25
2022-07-29T17:17:20.741Z,97952.19
2022-07-29T17:20:10.540Z,97948.56
2022-07-29T17:22:41.392Z,97950.19
2022-07-29T17:25:20.956Z,97951.94
2022-07-29T17:27:53.712Z,97947.78
2022-07-29T17:30:28.098Z,97955.50
2022-07-29T17:32:58.101Z,97949.66
2022-07-29T17:35:52.163Z,97956.75
2022-07-29T17:38:22.150Z,97959.91
2022-07-29T17:40:52.113Z,97954.75
2022-07-29T17:43:22.059Z,97952.97
2022-07-29T17:45:59.335Z,97954.84
2022-07-29T17:48:29.711Z,97957.63
2022-07-29T17:51:00.306Z,97956.31
2022-07-29T17:53:30.556Z,97958.44
2022-07-29T17:56:00.871Z,97965.94
2022-07-29T17:58:31.322Z,97965.41
2022-07-29T18:01:04.332Z,97968.25
2022-07-29T18:03:34.408Z,97965.47
2022-07-29T18:06:08.202Z,97966.69
2022-07-29T18:08:39.135Z,97979.38
2022-07-29T18:11:09.607Z,97974.72
2022-07-29T18:13:45.081Z,97985.31
2022-07-29T18:16:17.902Z,97993.16
2022-07-29T18:18:48.709Z,97984.69
2022-07-29T18:21:37.450Z,97983.22
2022-07-29T18:24:11.793Z,97979.50
2022-07-29T18:26:41.852Z,97979.09
2022-07-29T18:29:12.401Z,97975.72
2022-07-29T18:31:45.031Z,97985.84
2022-07-29T18:34:15.116Z,97980.28
2022-07-29T18:36:45.993Z,97980.78
2022-07-29T18:39:20.762Z,97976.91
2022-07-29T18:41:52.434Z,97971.38
2022-07-29T18:44:23.696Z,97976.78
2022-07-29T18:46:56.655Z,97970.25
2022-07-29T18:49:28.055Z,97966.84
2022-07-29T18:51:59.114Z,97968.00
2022-07-29T18:54:30.774Z,97971.44
2022-07-29T18:57:01.164Z,97976.72
2022-07-29T18:59:52.646Z,97972.41
2022-07-29T19:02:26.186Z,97980.69
2022-07-29T19:04:56.766Z,97982.97
2022-07-29T19:07:27.243Z,97981.63
2022-07-29T19:09:57.191Z,97985.19
2022-07-29T19:12:27.250Z,97983.91
2022-07-29T19:14:57.546Z,97994.25
2022-07-29T19:17:30.179Z,97997.81
2022-07-29T19:20:00.293Z,97998.81
2022-07-29T19:22:30.319Z,98001.06
2022-07-29T19:25:00.276Z,98019.31
2022-07-29T19:27:30.270Z,98013.56
2022-07-29T19:30:00.674Z,98015.81
2022-07-29T19:32:33.338Z,98015.00
2022-07-29T19:35:15.862Z,98017.28
2022-07-29T19:37:45.880Z,98025.22
2022-07-29T19:40:16.377Z,98026.00
2022-07-29T19:42:48.303Z,98030.84
2022-07-29T19:45:18.463Z,98031.88
2022-07-29T19:47:51.860Z,98034.19
2022-07-29T19:50:21.954Z,98032.91
2022-07-29T19:52:52.012Z,98025.19
2022-07-29T19:55:24.217Z,98033.97
2022-07-29T19:57:54.635Z,98030.34
2022-07-29T20:00:26.301Z,98028.75
2022-07-29T20:02:58.903Z,98032.94
2022-07-29T20:05:29.349Z,98036.81
2022-07-29T20:07:59.737Z,98033.41
2022-07-29T20:10:29.903Z,98030.28
2022-07-29T20:12:59.932Z,98027.16
2022-07-29T20:15:30.051Z,98020.78
2022-07-29T20:18:02.769Z,98023.06
2022-07-29T20:20:32.818Z,98025.41
2022-07-29T20:23:03.947Z,98028.25
2022-07-29T20:25:33.944Z,98022.63
2022-07-29T20:28:03.932Z,98021.31
2022-07-29T20:30:33.928Z,98024.41
2022-07-29T20:33:11.699Z,98031.09
2022-07-29T20:35:42.037Z,98033.34
2022-07-29T20:38:16.328Z,98027.28
2022-07-29T20:40:48.597Z,98028.00
2022-07-29T20:43:18.562Z,98027.91
2022-07-29T20:45:48.658Z,98030.91
2022-07-29T20:48:21.368Z,98030.00
2022-07-29T20:50:51.601Z,98039.22
2022-07-29T20:53:21.640Z,98041.72
2022-07-29T20:55:51.696Z,98034.41
2022-07-29T20:58:22.412Z,98032.53
2022-07-29T21:00:53.542Z,98033.94
2022-07-29T21:03:26.044Z,98031.00
2022-07-29T21:05:56.447Z,98040.81
2022-07-29T21:08:27.116Z,98046.22
2022-07-29T21:10:57.793Z,98039.44
2022-07-29T21:13:28.186Z,98041.06
2022-07-29T21:16:04.318Z,98045.91
2022-07-29T21:18:40.646Z,98053.09
2022-07-29T21:21:11.068Z,98047.72
2022-07-29T21:23:41.062Z,98055.69
2022-07-29T21:26:13.082Z,98049.06
2022-07-29T21:28:40.856Z,98052.41
2022-07-29T21:31:13.189Z,98054.03
2022-07-29T21:33:48.462Z,98052.22
2022-07-29T21:39:09.531Z,98048.34
2022-07-29T21:41:39.500Z,98053.66
2022-07-29T21:44:09.520Z,98052.31
2022-07-29T21:46:39.541Z,98055.94
2022-07-29T21:49:12.280Z,98049.81
2022-07-29T21:51:42.427Z,98054.09
2022-07-29T21:54:12.419Z,98064.28
2022-07-29T21:56:44.038Z,98071.06
2022-07-29T21:59:21.156Z,98068.50
2022-07-29T22:01:51.372Z,98066.34
2022-07-29T22:04:24.187Z,98066.38
2022-07-29T22:06:54.218Z,98064.69
2022-07-29T22:09:24.406Z,98066.94
2022-07-29T22:11:54.378Z,98063.03
2022-07-29T22:14:24.654Z,98059.31
2022-07-29T22:16:58.070Z,98060.34
2022-07-29T22:19:31.118Z,98062.31
2022-07-29T22:22:01.421Z,98061.22
2022-07-29T22:24:31.421Z,98068.72
2022-07-29T22:27:01.824Z,98070.91
2022-07-29T22:29:32.221Z,98079.00
2022-07-29T22:32:02.326Z,98076.81
2022-07-29T22:34:38.012Z,98078.88
2022-07-29T22:37:08.651Z,98077.94
2022-07-29T22:39:38.711Z,98080.69
2022-07-29T22:42:09.390Z,98076.50
2022-07-29T22:44:39.537Z,98075.47
2022-07-29T22:47:09.945Z,98076.41
2022-07-29T22:49:42.616Z,98071.72
2022-07-29T22:52:12.732Z,98076.25
2022-07-29T22:54:44.705Z,98070.47
2022-07-29T22:57:14.676Z,98072.97
2022-07-29T22:59:44.755Z,98075.38
2022-07-29T23:02:14.796Z,98076.38
2022-07-29T23:04:47.375Z,98068.56
2022-07-29T23:07:17.711Z,98075.75
2022-07-29T23:09:47.906Z,98066.38
2022-07-29T23:12:17.909Z,98074.34
2022-07-29T23:14:47.941Z,98064.81
2022-07-29T23:17:18.061Z,98064.72
2022-07-29T23:19:50.920Z,98060.16
2022-07-29T23:22:20.965Z,98067.41
2022-07-29T23:24:51.363Z,98061.94
2022-07-29T23:27:21.429Z,98068.72
2022-07-29T23:29:51.428Z,98062.59
2022-07-29T23:32:21.493Z,98062.63
2022-07-29T23:34:54.086Z,98057.72
2022-07-29T23:37:24.120Z,98061.28
2022-07-29T23:39:56.962Z,98058.75
2022-07-29T23:42:27.141Z,98057.75
2022-07-29T23:44:57.145Z,98061.00
2022-07-29T23:47:28.033Z,98063.78
2022-07-29T23:50:00.681Z,98063.91
2022-07-29T23:52:30.684Z,98053.63
2022-07-29T23:55:38.218Z,98062.38
2022-07-29T23:57:51.233Z,98066.53
